createdAt,value
2022-11-22T00:00:46.834Z,19.05
2022-11-22T00:05:50.309Z,18.60
2022-11-22T00:10:54.198Z,16.80
2022-11-22T00:16:04.631Z,20.88
2022-11-22T00:21:09.336Z,13.57
2022-11-22T00:26:12.827Z,13.88
2022-11-22T00:31:17.684Z,14.60
2022-11-22T00:36:21.112Z,19.23
2022-11-22T00:41:24.573Z,20.52
2022-11-22T00:46:29.410Z,19.13
2022-11-22T00:51:32.823Z,19.05
2022-11-22T00:56:36.961Z,20.30
2022-11-22T01:01:41.878Z,23.90
2022-11-22T01:06:45.414Z,19.35
2022-11-22T01:11:49.602Z,13.93
2022-11-22T01:16:54.466Z,19.13
2022-11-22T01:21:57.901Z,13.65
2022-11-22T01:27:01.343Z,17.67
2022-11-22T01:32:06.921Z,24.02
2022-11-22T01:37:10.392Z,18.35
2022-11-22T01:42:14.073Z,15.10
2022-11-22T01:47:22.229Z,16.80
2022-11-22T01:52:28.473Z,20.70
2022-11-22T01:57:36.479Z,18.70
2022-11-22T02:02:42.398Z,13.18
2022-11-22T02:07:52.874Z,17.00
2022-11-22T02:12:59.537Z,10.23
2022-11-22T02:18:04.571Z,16.15
2022-11-22T02:23:13.585Z,16.30
2022-11-22T02:28:18.486Z,16.83
2022-11-22T02:33:22.011Z,19.55
2022-11-22T02:38:28.344Z,17.63
2022-11-22T02:43:35.935Z,25.80
2022-11-22T02:48:41.848Z,18.05
2022-11-22T02:53:45.755Z,18.85
2022-11-22T02:58:50.702Z,18.05
2022-11-22T03:03:54.178Z,16.10
2022-11-22T03:08:57.906Z,15.43
2022-11-22T03:14:02.743Z,19.35
2022-11-22T03:19:06.181Z,13.75
2022-11-22T03:24:10.544Z,17.50
2022-11-22T03:29:15.456Z,17.55
2022-11-22T03:34:18.927Z,17.20
2022-11-22T03:39:22.416Z,21.58
2022-11-22T03:44:27.373Z,19.05
2022-11-22T03:49:31.026Z,15.07
2022-11-22T03:54:34.699Z,17.80
2022-11-22T03:59:39.565Z,16.48
2022-11-22T04:04:43.177Z,17.10
2022-11-22T04:09:46.629Z,24.25
2022-11-22T04:15:09.334Z,13.65
2022-11-22T04:20:33.870Z,17.90
2022-11-22T04:25:38.953Z,20.17
2022-11-22T04:31:01.673Z,14.18
2022-11-22T04:36:10.264Z,17.15
2022-11-22T04:41:16.524Z,20.48
2022-11-22T04:46:21.341Z,15.93
2022-11-22T04:51:42.094Z,16.75
2022-11-22T04:56:45.577Z,24.27
2022-11-22T05:01:50.351Z,16.88
2022-11-22T05:06:53.777Z,8.90
2022-11-22T05:11:57.272Z,11.95
2022-11-22T05:17:02.080Z,20.40
2022-11-22T05:22:05.509Z,26.77
2022-11-22T05:27:09.124Z,15.35
2022-11-22T05:32:13.947Z,13.25
2022-11-22T05:37:17.365Z,13.38
2022-11-22T05:42:20.843Z,19.33
2022-11-22T05:47:25.659Z,16.70
2022-11-22T05:52:29.121Z,12.95
2022-11-22T05:57:33.843Z,11.75
2022-11-22T06:02:38.759Z,16.17
2022-11-22T06:07:42.322Z,15.18
2022-11-22T06:12:45.792Z,13.32
2022-11-22T06:17:50.543Z,19.77
2022-11-22T06:22:53.959Z,18.88
2022-11-22T06:27:59.993Z,13.15
2022-11-22T06:33:04.803Z,14.18
2022-11-22T06:38:08.240Z,10.93
2022-11-22T06:43:12.025Z,16.02
2022-11-22T06:48:16.848Z,16.17
2022-11-22T06:53:39.776Z,13.35
2022-11-22T06:58:44.446Z,21.17
2022-11-22T07:03:49.475Z,19.48
2022-11-22T07:08:53.673Z,11.40
2022-11-22T07:14:03.239Z,17.45
2022-11-22T07:19:11.799Z,15.25
2022-11-22T07:24:15.496Z,19.25
2022-11-22T07:29:19.098Z,12.70
2022-11-22T07:34:23.966Z,12.93
2022-11-22T07:39:27.841Z,19.85
2022-11-22T07:44:31.554Z,12.50
2022-11-22T07:49:36.450Z,13.55
2022-11-22T07:54:40.286Z,16.13
2022-11-22T07:59:43.818Z,18.42
2022-11-22T08:04:48.779Z,17.98
2022-11-22T08:09:52.331Z,14.25
2022-11-22T08:14:55.925Z,13.52
2022-11-22T08:20:00.908Z,20.63
2022-11-22T08:25:05.113Z,16.65
2022-11-22T08:30:09.754Z,13.13
2022-11-22T08:35:15.441Z,12.13
2022-11-22T08:40:19.078Z,9.85
2022-11-22T08:45:22.708Z,16.17
2022-11-22T08:50:27.707Z,12.60
2022-11-22T08:55:31.309Z,12.85
2022-11-22T09:00:34.848Z,18.58
2022-11-22T09:11:04.144Z,13.30
2022-11-22T09:16:10.173Z,12.93
2022-11-22T09:21:18.138Z,10.88
2022-11-22T09:26:24.604Z,17.42
2022-11-22T09:31:29.315Z,13.35
2022-11-22T09:36:34.224Z,11.27
2022-11-22T09:42:14.405Z,10.77
2022-11-22T09:47:29.258Z,11.13
2022-11-22T09:52:41.414Z,11.43
2022-11-22T09:57:52.827Z,17.38
2022-11-22T10:03:06.427Z,13.15
2022-11-22T10:08:25.777Z,14.55
2022-11-22T10:13:35.071Z,11.25
2022-11-22T10:18:45.284Z,12.95
2022-11-22T10:23:50.322Z,10.02
2022-11-22T10:29:10.314Z,11.32
2022-11-22T10:34:23.171Z,10.70
2022-11-22T10:39:55.201Z,9.02
2022-11-22T10:45:06.771Z,9.98
2022-11-22T10:50:17.770Z,9.05
2022-11-22T10:55:41.814Z,9.27
2022-11-22T11:00:48.789Z,17.00
2022-11-22T11:11:24.113Z,11.77
2022-11-22T11:16:33.987Z,9.95
2022-11-22T11:21:37.622Z,7.03
2022-11-22T11:26:44.038Z,6.53
2022-11-22T11:31:49.170Z,7.82
2022-11-22T11:36:55.820Z,4.78
2022-11-22T11:42:01.493Z,4.05
2022-11-22T11:47:06.105Z,8.27
2022-11-22T11:52:19.603Z,6.25
2022-11-22T11:57:31.634Z,4.18
2022-11-22T12:02:40.091Z,4.75
2022-11-22T12:07:46.134Z,3.20
2022-11-22T12:12:54.599Z,4.95
2022-11-22T12:18:05.440Z,3.25
2022-11-22T12:23:21.681Z,4.47
2022-11-22T12:28:30.120Z,4.60
2022-11-22T12:33:37.630Z,6.70
2022-11-22T12:38:44.768Z,3.42
2022-11-22T12:43:54.752Z,6.25
2022-11-22T12:49:02.760Z,8.50
2022-11-22T12:54:12.040Z,6.00
2022-11-22T12:59:26.729Z,4.30
2022-11-22T13:04:40.135Z,3.10
2022-11-22T13:09:52.831Z,2.95
2022-11-22T13:15:00.118Z,3.60
2022-11-22T13:20:08.098Z,4.53
2022-11-22T13:25:35.478Z,2.47
2022-11-22T13:30:40.981Z,2.35
2022-11-22T13:35:44.833Z,3.45
2022-11-22T13:40:51.355Z,1.70
2022-11-22T13:45:58.336Z,6.75
2022-11-22T13:51:02.979Z,1.52
2022-11-22T13:56:43.793Z,2.95
2022-11-22T14:02:04.800Z,1.55
2022-11-22T14:07:24.707Z,3.08
2022-11-22T14:12:43.927Z,2.20
2022-11-22T14:17:59.983Z,3.10
2022-11-22T14:23:11.904Z,2.63
2022-11-22T14:28:35.489Z,1.83
2022-11-22T14:34:16.239Z,11.77
2022-11-22T14:39:53.275Z,6.68
2022-11-22T14:44:57.590Z,9.10
2022-11-22T14:50:05.997Z,2.55
2022-11-22T14:55:18.423Z,2.47
2022-11-22T15:00:24.118Z,4.88
2022-11-22T15:09:15.365Z,3.72
2022-11-22T15:11:29.481Z,4.05
2022-11-22T16:00:20.189Z,1.45
2022-11-22T16:06:08.977Z,2.17
2022-11-22T16:10:55.012Z,3.20
2022-11-22T16:16:07.474Z,5.00
2022-11-22T16:21:21.792Z,3.95
2022-11-22T16:26:30.076Z,3.28
2022-11-22T16:31:33.694Z,2.80
2022-11-22T16:36:37.605Z,3.35
2022-11-22T16:41:42.689Z,3.13
2022-11-22T16:46:47.288Z,3.63
2022-11-22T16:51:52.131Z,3.17
2022-11-22T16:56:57.058Z,2.60
2022-11-22T17:02:00.885Z,1.80
2022-11-22T17:07:04.618Z,3.45
2022-11-22T17:12:14.908Z,5.20
2022-11-22T17:17:18.816Z,4.20
2022-11-22T17:22:22.616Z,4.88
2022-11-22T17:27:27.682Z,5.47
2022-11-22T17:32:31.279Z,6.75
2022-11-22T17:37:34.837Z,8.20
2022-11-22T17:42:41.351Z,9.07
2022-11-22T17:47:45.071Z,8.50
2022-11-22T17:52:48.691Z,7.55
2022-11-22T17:57:55.978Z,12.35
2022-11-22T18:03:03.798Z,9.15
2022-11-22T18:08:10.269Z,8.20
2022-11-22T18:13:22.398Z,7.45
2022-11-22T18:18:55.074Z,7.68
2022-11-22T18:23:49.752Z,7.30
2022-11-22T18:29:24.521Z,6.90
2022-11-22T18:34:19.473Z,7.18
2022-11-22T18:39:23.142Z,8.07
2022-11-22T18:44:28.102Z,8.35
2022-11-22T18:49:32.292Z,6.78
2022-11-22T18:54:36.378Z,6.15
2022-11-22T18:59:41.546Z,5.28
2022-11-22T19:04:45.104Z,10.10
2022-11-22T19:09:48.830Z,12.27
2022-11-22T19:14:53.804Z,9.00
2022-11-22T19:19:59.215Z,9.13
2022-11-22T19:25:02.713Z,9.30
2022-11-22T19:30:09.201Z,10.65
2022-11-22T19:35:13.235Z,10.45
2022-11-22T19:40:16.934Z,10.95
2022-11-22T19:45:21.832Z,11.48
2022-11-22T19:50:25.471Z,11.00
2022-11-22T19:55:29.056Z,10.73
2022-11-22T20:00:34.410Z,14.10
2022-11-22T20:05:38.179Z,12.85
2022-11-22T20:10:41.704Z,12.00
2022-11-22T20:15:46.644Z,12.35
2022-11-22T20:20:50.250Z,10.20
2022-11-22T20:25:53.763Z,15.13
2022-11-22T20:31:07.952Z,13.27
2022-11-22T20:36:13.636Z,11.40
2022-11-22T20:41:19.016Z,13.07
2022-11-22T20:46:26.726Z,16.30
2022-11-22T20:51:30.465Z,17.23
2022-11-22T20:56:34.254Z,14.40
2022-11-22T21:01:39.354Z,19.17
2022-11-22T21:06:43.103Z,17.35
2022-11-22T21:11:48.125Z,16.30
2022-11-22T21:16:53.219Z,11.70
2022-11-22T21:21:56.754Z,20.15
2022-11-22T21:27:00.325Z,11.43
2022-11-22T21:32:05.443Z,16.75
2022-11-22T21:37:09.023Z,20.05
2022-11-22T21:42:12.586Z,22.45
2022-11-22T21:47:17.398Z,17.45
2022-11-22T21:52:20.983Z,15.43
2022-11-22T21:57:24.639Z,12.50
2022-11-22T22:02:30.777Z,30.30
2022-11-22T22:07:51.920Z,16.48
2022-11-22T22:12:56.544Z,16.42
2022-11-22T22:18:01.510Z,13.40
2022-11-22T22:23:05.053Z,15.88
2022-11-22T22:28:08.750Z,17.13
2022-11-22T22:33:13.663Z,15.63
2022-11-22T22:38:17.221Z,15.98
2022-11-22T22:43:20.869Z,11.05
2022-11-22T22:48:25.795Z,11.25
2022-11-22T22:53:31.051Z,11.80
2022-11-22T22:58:34.815Z,11.77
2022-11-22T23:03:39.639Z,10.77
2022-11-22T23:08:46.692Z,14.85
2022-11-22T23:13:50.241Z,13.38
2022-11-22T23:18:55.042Z,13.02
2022-11-22T23:23:58.608Z,12.43
2022-11-22T23:29:02.523Z,17.25
2022-11-22T23:34:07.448Z,12.52
2022-11-22T23:39:11.652Z,13.13
2022-11-22T23:44:15.158Z,11.93
2022-11-22T23:49:19.950Z,15.90
2022-11-22T23:54:23.419Z,12.45
2022-11-22T23:59:27.021Z,13.23
